sensor_id;sensor_type;location;lat;lon;timestamp;P1;durP1;ratioP1;P2;durP2;ratioP2
42886;SDS011;29032;56.028;92.904;2023-07-31T00:01:26;6.75;;;6.10;;
42886;SDS011;29032;56.028;92.904;2023-07-31T00:06:30;7.30;;;6.45;;
42886;SDS011;29032;56.028;92.904;2023-07-31T00:11:32;7.65;;;6.40;;
42886;SDS011;29032;56.028;92.904;2023-07-31T00:16:34;6.90;;;6.20;;
42886;SDS011;29032;56.028;92.904;2023-07-31T00:21:37;6.75;;;6.15;;
42886;SDS011;29032;56.028;92.904;2023-07-31T00:26:39;7.05;;;6.43;;
42886;SDS011;29032;56.028;92.904;2023-07-31T00:31:41;7.30;;;6.60;;
42886;SDS011;29032;56.028;92.904;2023-07-31T00:36:45;7.22;;;6.57;;
42886;SDS011;29032;56.028;92.904;2023-07-31T00:41:47;7.05;;;6.20;;
42886;SDS011;29032;56.028;92.904;2023-07-31T00:46:49;7.40;;;6.03;;
42886;SDS011;29032;56.028;92.904;2023-07-31T00:51:52;8.38;;;6.22;;
42886;SDS011;29032;56.028;92.904;2023-07-31T00:56:55;6.90;;;6.00;;
42886;SDS011;29032;56.028;92.904;2023-07-31T01:01:58;6.82;;;5.85;;
42886;SDS011;29032;56.028;92.904;2023-07-31T01:07:04;6.18;;;5.57;;
42886;SDS011;29032;56.028;92.904;2023-07-31T01:12:15;7.00;;;5.97;;
42886;SDS011;29032;56.028;92.904;2023-07-31T01:17:19;6.32;;;5.72;;
42886;SDS011;29032;56.028;92.904;2023-07-31T01:22:30;6.53;;;5.93;;
42886;SDS011;29032;56.028;92.904;2023-07-31T01:27:52;6.32;;;5.65;;
42886;SDS011;29032;56.028;92.904;2023-07-31T01:33:01;5.60;;;5.10;;
42886;SDS011;29032;56.028;92.904;2023-07-31T01:38:04;4.93;;;4.47;;
42886;SDS011;29032;56.028;92.904;2023-07-31T01:43:08;5.22;;;4.72;;
42886;SDS011;29032;56.028;92.904;2023-07-31T01:48:10;5.43;;;4.93;;
42886;SDS011;29032;56.028;92.904;2023-07-31T01:53:12;5.20;;;4.70;;
42886;SDS011;29032;56.028;92.904;2023-07-31T01:58:16;5.20;;;4.70;;
42886;SDS011;29032;56.028;92.904;2023-07-31T02:03:18;6.35;;;4.40;;
42886;SDS011;29032;56.028;92.904;2023-07-31T02:08:19;4.95;;;4.55;;
42886;SDS011;29032;56.028;92.904;2023-07-31T02:13:23;6.85;;;4.50;;
42886;SDS011;29032;56.028;92.904;2023-07-31T02:18:25;10.65;;;4.95;;
42886;SDS011;29032;56.028;92.904;2023-07-31T02:23:27;8.88;;;4.80;;
42886;SDS011;29032;56.028;92.904;2023-07-31T02:28:31;4.97;;;4.57;;
42886;SDS011;29032;56.028;92.904;2023-07-31T02:33:33;5.18;;;4.70;;
42886;SDS011;29032;56.028;92.904;2023-07-31T02:38:35;7.85;;;5.53;;
42886;SDS011;29032;56.028;92.904;2023-07-31T02:43:38;6.18;;;4.95;;
42886;SDS011;29032;56.028;92.904;2023-07-31T02:48:40;5.20;;;4.70;;
42886;SDS011;29032;56.028;92.904;2023-07-31T02:53:42;7.10;;;5.40;;
42886;SDS011;29032;56.028;92.904;2023-07-31T02:58:46;5.68;;;5.03;;
42886;SDS011;29032;56.028;92.904;2023-07-31T03:03:48;4.70;;;4.15;;
42886;SDS011;29032;56.028;92.904;2023-07-31T03:08:50;6.10;;;4.47;;
42886;SDS011;29032;56.028;92.904;2023-07-31T03:13:53;5.53;;;3.97;;
42886;SDS011;29032;56.028;92.904;2023-07-31T03:18:55;4.38;;;3.97;;
42886;SDS011;29032;56.028;92.904;2023-07-31T03:23:57;4.18;;;3.78;;
42886;SDS011;29032;56.028;92.904;2023-07-31T03:29:01;5.18;;;4.65;;
42886;SDS011;29032;56.028;92.904;2023-07-31T03:34:04;5.70;;;5.20;;
42886;SDS011;29032;56.028;92.904;2023-07-31T03:39:05;5.18;;;4.78;;
42886;SDS011;29032;56.028;92.904;2023-07-31T03:44:09;4.65;;;4.25;;
42886;SDS011;29032;56.028;92.904;2023-07-31T03:49:11;4.45;;;4.05;;
42886;SDS011;29032;56.028;92.904;2023-07-31T03:54:13;4.82;;;4.43;;
42886;SDS011;29032;56.028;92.904;2023-07-31T03:59:17;5.45;;;4.80;;
42886;SDS011;29032;56.028;92.904;2023-07-31T04:04:19;5.00;;;4.50;;
42886;SDS011;29032;56.028;92.904;2023-07-31T04:09:21;5.20;;;4.80;;
42886;SDS011;29032;56.028;92.904;2023-07-31T04:14:25;4.57;;;4.22;;
42886;SDS011;29032;56.028;92.904;2023-07-31T04:19:27;5.80;;;5.18;;
42886;SDS011;29032;56.028;92.904;2023-07-31T04:24:29;5.50;;;4.97;;
42886;SDS011;29032;56.028;92.904;2023-07-31T04:29:32;5.18;;;4.78;;
42886;SDS011;29032;56.028;92.904;2023-07-31T04:34:35;5.40;;;4.78;;
42886;SDS011;29032;56.028;92.904;2023-07-31T04:39:37;5.15;;;4.65;;
42886;SDS011;29032;56.028;92.904;2023-07-31T04:44:40;4.90;;;4.28;;
42886;SDS011;29032;56.028;92.904;2023-07-31T04:49:42;5.40;;;5.00;;
42886;SDS011;29032;56.028;92.904;2023-07-31T04:54:44;5.07;;;4.68;;
42886;SDS011;29032;56.028;92.904;2023-07-31T04:59:48;5.03;;;4.60;;
42886;SDS011;29032;56.028;92.904;2023-07-31T05:04:50;7.20;;;4.78;;
42886;SDS011;29032;56.028;92.904;2023-07-31T05:09:52;5.40;;;4.90;;
42886;SDS011;29032;56.028;92.904;2023-07-31T05:14:55;6.47;;;4.88;;
42886;SDS011;29032;56.028;92.904;2023-07-31T05:19:57;5.78;;;5.28;;
42886;SDS011;29032;56.028;92.904;2023-07-31T05:24:59;9.00;;;5.30;;
42886;SDS011;29032;56.028;92.904;2023-07-31T05:30:03;6.07;;;4.70;;
42886;SDS011;29032;56.028;92.904;2023-07-31T05:35:06;6.60;;;4.70;;
42886;SDS011;29032;56.028;92.904;2023-07-31T05:40:09;5.72;;;3.97;;
42886;SDS011;29032;56.028;92.904;2023-07-31T05:45:12;4.50;;;4.10;;
42886;SDS011;29032;56.028;92.904;2023-07-31T05:50:15;8.15;;;4.40;;
42886;SDS011;29032;56.028;92.904;2023-07-31T05:55:17;4.45;;;4.07;;
42886;SDS011;29032;56.028;92.904;2023-07-31T06:00:21;4.80;;;4.40;;
42886;SDS011;29032;56.028;92.904;2023-07-31T06:05:23;4.80;;;4.40;;
42886;SDS011;29032;56.028;92.904;2023-07-31T06:10:25;5.45;;;4.75;;
42886;SDS011;29032;56.028;92.904;2023-07-31T06:15:29;4.90;;;4.47;;
42886;SDS011;29032;56.028;92.904;2023-07-31T06:20:31;5.63;;;5.05;;
42886;SDS011;29032;56.028;92.904;2023-07-31T06:25:33;4.95;;;4.50;;
42886;SDS011;29032;56.028;92.904;2023-07-31T06:30:36;5.03;;;4.63;;
42886;SDS011;29032;56.028;92.904;2023-07-31T06:35:38;5.70;;;4.95;;
42886;SDS011;29032;56.028;92.904;2023-07-31T06:40:41;11.60;;;10.38;;
42886;SDS011;29032;56.028;92.904;2023-07-31T06:45:44;6.57;;;5.80;;
42886;SDS011;29032;56.028;92.904;2023-07-31T06:50:46;5.63;;;5.10;;
42886;SDS011;29032;56.028;92.904;2023-07-31T06:55:48;5.10;;;4.68;;
42886;SDS011;29032;56.028;92.904;2023-07-31T07:00:52;5.22;;;4.15;;
42886;SDS011;29032;56.028;92.904;2023-07-31T07:05:54;4.50;;;4.13;;
42886;SDS011;29032;56.028;92.904;2023-07-31T07:10:56;4.38;;;4.07;;
42886;SDS011;29032;56.028;92.904;2023-07-31T07:15:59;4.45;;;4.03;;
42886;SDS011;29032;56.028;92.904;2023-07-31T07:21:01;5.82;;;5.22;;
42886;SDS011;29032;56.028;92.904;2023-07-31T07:26:03;4.72;;;4.30;;
42886;SDS011;29032;56.028;92.904;2023-07-31T07:31:08;6.05;;;3.97;;
42886;SDS011;29032;56.028;92.904;2023-07-31T07:36:10;5.75;;;5.25;;
42886;SDS011;29032;56.028;92.904;2023-07-31T07:41:12;4.07;;;3.70;;
42886;SDS011;29032;56.028;92.904;2023-07-31T07:46:15;6.20;;;4.72;;
42886;SDS011;29032;56.028;92.904;2023-07-31T07:51:17;5.13;;;4.72;;
42886;SDS011;29032;56.028;92.904;2023-07-31T07:56:19;5.15;;;4.65;;
42886;SDS011;29032;56.028;92.904;2023-07-31T08:01:22;10.77;;;9.75;;
42886;SDS011;29032;56.028;92.904;2023-07-31T08:06:24;6.22;;;5.63;;
42886;SDS011;29032;56.028;92.904;2023-07-31T08:11:26;6.13;;;5.57;;
42886;SDS011;29032;56.028;92.904;2023-07-31T08:16:30;5.30;;;4.85;;
42886;SDS011;29032;56.028;92.904;2023-07-31T08:21:32;5.15;;;4.75;;
42886;SDS011;29032;56.028;92.904;2023-07-31T08:26:34;5.30;;;4.80;;
42886;SDS011;29032;56.028;92.904;2023-07-31T08:31:37;4.85;;;4.25;;
42886;SDS011;29032;56.028;92.904;2023-07-31T08:36:39;4.85;;;4.30;;
42886;SDS011;29032;56.028;92.904;2023-07-31T08:41:41;5.30;;;4.80;;
42886;SDS011;29032;56.028;92.904;2023-07-31T08:46:45;6.18;;;5.20;;
42886;SDS011;29032;56.028;92.904;2023-07-31T08:51:49;5.65;;;5.15;;
42886;SDS011;29032;56.028;92.904;2023-07-31T08:56:51;4.20;;;3.75;;
42886;SDS011;29032;56.028;92.904;2023-07-31T09:01:55;4.40;;;4.00;;
42886;SDS011;29032;56.028;92.904;2023-07-31T09:07:03;5.55;;;5.05;;
42886;SDS011;29032;56.028;92.904;2023-07-31T09:12:06;5.22;;;4.53;;
42886;SDS011;29032;56.028;92.904;2023-07-31T09:17:10;6.03;;;5.13;;
42886;SDS011;29032;56.028;92.904;2023-07-31T09:22:12;5.25;;;4.85;;
42886;SDS011;29032;56.028;92.904;2023-07-31T09:27:14;5.53;;;5.10;;
42886;SDS011;29032;56.028;92.904;2023-07-31T09:32:18;5.53;;;4.95;;
42886;SDS011;29032;56.028;92.904;2023-07-31T09:37:20;6.45;;;5.20;;
42886;SDS011;29032;56.028;92.904;2023-07-31T09:42:25;5.75;;;5.25;;
42886;SDS011;29032;56.028;92.904;2023-07-31T09:47:29;6.90;;;5.60;;
42886;SDS011;29032;56.028;92.904;2023-07-31T09:52:31;6.68;;;5.28;;
42886;SDS011;29032;56.028;92.904;2023-07-31T09:57:33;5.90;;;5.40;;
42886;SDS011;29032;56.028;92.904;2023-07-31T10:02:40;6.55;;;6.03;;
42886;SDS011;29032;56.028;92.904;2023-07-31T10:07:42;5.68;;;5.20;;
42886;SDS011;29032;56.028;92.904;2023-07-31T10:12:48;5.47;;;4.97;;
42886;SDS011;29032;56.028;92.904;2023-07-31T10:17:54;5.90;;;5.20;;
42886;SDS011;29032;56.028;92.904;2023-07-31T10:22:57;5.72;;;5.03;;
42886;SDS011;29032;56.028;92.904;2023-07-31T10:28:00;6.25;;;5.65;;
42886;SDS011;29032;56.028;92.904;2023-07-31T10:33:04;7.43;;;6.30;;
42886;SDS011;29032;56.028;92.904;2023-07-31T10:38:10;7.40;;;5.93;;
42886;SDS011;29032;56.028;92.904;2023-07-31T10:43:23;5.68;;;5.18;;
42886;SDS011;29032;56.028;92.904;2023-07-31T10:48:27;5.88;;;5.00;;
42886;SDS011;29032;56.028;92.904;2023-07-31T10:53:35;5.32;;;4.90;;
42886;SDS011;29032;56.028;92.904;2023-07-31T10:58:37;5.25;;;4.85;;
42886;SDS011;29032;56.028;92.904;2023-07-31T11:03:45;6.22;;;4.65;;
42886;SDS011;29032;56.028;92.904;2023-07-31T11:08:49;5.47;;;5.00;;
42886;SDS011;29032;56.028;92.904;2023-07-31T11:13:53;4.95;;;4.43;;
42886;SDS011;29032;56.028;92.904;2023-07-31T11:18:57;5.55;;;5.00;;
42886;SDS011;29032;56.028;92.904;2023-07-31T11:23:59;6.03;;;5.40;;
42886;SDS011;29032;56.028;92.904;2023-07-31T11:29:01;6.07;;;4.60;;
42886;SDS011;29032;56.028;92.904;2023-07-31T11:34:13;6.03;;;5.53;;
42886;SDS011;29032;56.028;92.904;2023-07-31T11:39:15;6.38;;;5.20;;
42886;SDS011;29032;56.028;92.904;2023-07-31T11:44:17;5.30;;;4.85;;
42886;SDS011;29032;56.028;92.904;2023-07-31T11:49:20;5.30;;;4.90;;
42886;SDS011;29032;56.028;92.904;2023-07-31T11:54:23;5.00;;;4.60;;
42886;SDS011;29032;56.028;92.904;2023-07-31T11:59:25;5.45;;;4.93;;
42886;SDS011;29032;56.028;92.904;2023-07-31T12:04:29;5.15;;;4.38;;
42886;SDS011;29032;56.028;92.904;2023-07-31T12:09:32;5.20;;;4.73;;
42886;SDS011;29032;56.028;92.904;2023-07-31T12:14:34;4.57;;;4.20;;
42886;SDS011;29032;56.028;92.904;2023-07-31T12:19:37;4.80;;;4.40;;
42886;SDS011;29032;56.028;92.904;2023-07-31T12:24:39;4.70;;;4.13;;
42886;SDS011;29032;56.028;92.904;2023-07-31T12:29:42;5.88;;;4.50;;
42886;SDS011;29032;56.028;92.904;2023-07-31T12:34:45;4.53;;;4.13;;
42886;SDS011;29032;56.028;92.904;2023-07-31T12:39:47;4.80;;;4.40;;
42886;SDS011;29032;56.028;92.904;2023-07-31T12:44:49;4.95;;;4.03;;
42886;SDS011;29032;56.028;92.904;2023-07-31T12:49:53;4.30;;;3.90;;
42886;SDS011;29032;56.028;92.904;2023-07-31T12:54:55;6.35;;;4.03;;
42886;SDS011;29032;56.028;92.904;2023-07-31T12:59:57;5.25;;;4.57;;
42886;SDS011;29032;56.028;92.904;2023-07-31T13:05:00;6.30;;;4.38;;
42886;SDS011;29032;56.028;92.904;2023-07-31T13:10:03;4.95;;;4.28;;
42886;SDS011;29032;56.028;92.904;2023-07-31T13:15:05;5.28;;;4.70;;
42886;SDS011;29032;56.028;92.904;2023-07-31T13:20:10;5.30;;;4.78;;
42886;SDS011;29032;56.028;92.904;2023-07-31T13:25:12;5.20;;;4.68;;
42886;SDS011;29032;56.028;92.904;2023-07-31T13:30:15;5.63;;;4.82;;
42886;SDS011;29032;56.028;92.904;2023-07-31T13:35:18;6.00;;;4.85;;
42886;SDS011;29032;56.028;92.904;2023-07-31T13:40:21;7.05;;;5.40;;
42886;SDS011;29032;56.028;92.904;2023-07-31T13:45:23;5.35;;;4.85;;
42886;SDS011;29032;56.028;92.904;2023-07-31T13:50:27;6.43;;;5.10;;
42886;SDS011;29032;56.028;92.904;2023-07-31T13:55:29;6.55;;;5.15;;
42886;SDS011;29032;56.028;92.904;2023-07-31T14:00:31;6.75;;;5.95;;
42886;SDS011;29032;56.028;92.904;2023-07-31T14:05:34;6.75;;;6.03;;
42886;SDS011;29032;56.028;92.904;2023-07-31T14:10:36;8.15;;;5.40;;
42886;SDS011;29032;56.028;92.904;2023-07-31T14:15:39;6.22;;;5.63;;
42886;SDS011;29032;56.028;92.904;2023-07-31T14:20:44;5.50;;;5.00;;
42886;SDS011;29032;56.028;92.904;2023-07-31T14:25:46;5.82;;;4.93;;
42886;SDS011;29032;56.028;92.904;2023-07-31T14:30:48;5.85;;;5.25;;
42886;SDS011;29032;56.028;92.904;2023-07-31T14:35:52;6.70;;;5.13;;
42886;SDS011;29032;56.028;92.904;2023-07-31T14:40:54;5.43;;;4.93;;
42886;SDS011;29032;56.028;92.904;2023-07-31T14:45:56;6.60;;;5.10;;
42886;SDS011;29032;56.028;92.904;2023-07-31T14:50:59;6.15;;;5.22;;
42886;SDS011;29032;56.028;92.904;2023-07-31T14:56:01;5.78;;;4.97;;
42886;SDS011;29032;56.028;92.904;2023-07-31T15:01:03;7.40;;;5.03;;
42886;SDS011;29032;56.028;92.904;2023-07-31T15:06:07;6.65;;;5.30;;
42886;SDS011;29032;56.028;92.904;2023-07-31T15:11:09;8.25;;;5.20;;
42886;SDS011;29032;56.028;92.904;2023-07-31T15:16:11;7.63;;;5.57;;
42886;SDS011;29032;56.028;92.904;2023-07-31T15:21:15;6.68;;;5.63;;
42886;SDS011;29032;56.028;92.904;2023-07-31T15:26:17;6.63;;;5.90;;
42886;SDS011;29032;56.028;92.904;2023-07-31T15:31:19;8.05;;;6.43;;
42886;SDS011;29032;56.028;92.904;2023-07-31T15:36:22;9.50;;;7.75;;
42886;SDS011;29032;56.028;92.904;2023-07-31T15:41:24;8.05;;;6.97;;
42886;SDS011;29032;56.028;92.904;2023-07-31T15:46:26;7.60;;;6.78;;
42886;SDS011;29032;56.028;92.904;2023-07-31T15:51:30;6.13;;;5.50;;
42886;SDS011;29032;56.028;92.904;2023-07-31T15:56:32;8.60;;;5.72;;
42886;SDS011;29032;56.028;92.904;2023-07-31T16:01:34;6.97;;;6.25;;
42886;SDS011;29032;56.028;92.904;2023-07-31T16:06:37;6.75;;;6.03;;
42886;SDS011;29032;56.028;92.904;2023-07-31T16:11:39;7.45;;;5.85;;
42886;SDS011;29032;56.028;92.904;2023-07-31T16:16:41;7.28;;;5.65;;
42886;SDS011;29032;56.028;92.904;2023-07-31T16:21:45;8.98;;;6.70;;
42886;SDS011;29032;56.028;92.904;2023-07-31T16:26:47;8.10;;;6.47;;
42886;SDS011;29032;56.028;92.904;2023-07-31T16:31:49;9.38;;;6.60;;
42886;SDS011;29032;56.028;92.904;2023-07-31T16:36:53;9.43;;;6.90;;
42886;SDS011;29032;56.028;92.904;2023-07-31T16:41:56;8.63;;;7.70;;
42886;SDS011;29032;56.028;92.904;2023-07-31T16:46:57;8.52;;;7.15;;
42886;SDS011;29032;56.028;92.904;2023-07-31T16:52:01;7.07;;;6.40;;
42886;SDS011;29032;56.028;92.904;2023-07-31T16:57:03;7.65;;;6.85;;
42886;SDS011;29032;56.028;92.904;2023-07-31T17:02:06;7.07;;;6.38;;
42886;SDS011;29032;56.028;92.904;2023-07-31T17:07:10;8.35;;;6.50;;
42886;SDS011;29032;56.028;92.904;2023-07-31T17:12:12;7.82;;;6.65;;
42886;SDS011;29032;56.028;92.904;2023-07-31T17:17:14;6.95;;;6.35;;
42886;SDS011;29032;56.028;92.904;2023-07-31T17:22:17;6.88;;;6.18;;
42886;SDS011;29032;56.028;92.904;2023-07-31T17:27:19;7.20;;;6.45;;
42886;SDS011;29032;56.028;92.904;2023-07-31T17:32:21;7.78;;;6.97;;
42886;SDS011;29032;56.028;92.904;2023-07-31T17:37:25;7.25;;;5.95;;
42886;SDS011;29032;56.028;92.904;2023-07-31T17:42:27;7.38;;;6.68;;
42886;SDS011;29032;56.028;92.904;2023-07-31T17:47:29;7.32;;;6.65;;
42886;SDS011;29032;56.028;92.904;2023-07-31T17:52:33;12.88;;;8.30;;
42886;SDS011;29032;56.028;92.904;2023-07-31T17:57:35;8.10;;;7.28;;
42886;SDS011;29032;56.028;92.904;2023-07-31T18:02:37;9.10;;;7.60;;
42886;SDS011;29032;56.028;92.904;2023-07-31T18:07:41;8.00;;;7.10;;
42886;SDS011;29032;56.028;92.904;2023-07-31T18:12:43;8.25;;;7.18;;
42886;SDS011;29032;56.028;92.904;2023-07-31T18:17:45;8.90;;;7.07;;
42886;SDS011;29032;56.028;92.904;2023-07-31T18:22:49;7.38;;;6.68;;
42886;SDS011;29032;56.028;92.904;2023-07-31T18:27:51;7.45;;;6.25;;
42886;SDS011;29032;56.028;92.904;2023-07-31T18:32:53;10.13;;;6.93;;
42886;SDS011;29032;56.028;92.904;2023-07-31T18:37:56;7.03;;;5.85;;
42886;SDS011;29032;56.028;92.904;2023-07-31T18:42:58;7.45;;;5.95;;
42886;SDS011;29032;56.028;92.904;2023-07-31T18:48:00;7.55;;;6.10;;
42886;SDS011;29032;56.028;92.904;2023-07-31T18:53:04;10.25;;;6.15;;
42886;SDS011;29032;56.028;92.904;2023-07-31T18:58:06;6.90;;;6.18;;
42886;SDS011;29032;56.028;92.904;2023-07-31T19:03:08;9.07;;;5.47;;
42886;SDS011;29032;56.028;92.904;2023-07-31T19:08:12;6.95;;;5.72;;
42886;SDS011;29032;56.028;92.904;2023-07-31T19:13:14;6.28;;;5.70;;
42886;SDS011;29032;56.028;92.904;2023-07-31T19:18:16;6.60;;;5.82;;
42886;SDS011;29032;56.028;92.904;2023-07-31T19:23:19;6.28;;;5.68;;
42886;SDS011;29032;56.028;92.904;2023-07-31T19:28:21;6.93;;;5.60;;
42886;SDS011;29032;56.028;92.904;2023-07-31T19:33:23;6.35;;;5.72;;
42886;SDS011;29032;56.028;92.904;2023-07-31T19:38:27;8.48;;;5.85;;
42886;SDS011;29032;56.028;92.904;2023-07-31T19:43:29;6.75;;;6.10;;
42886;SDS011;29032;56.028;92.904;2023-07-31T19:48:31;9.55;;;6.38;;
42886;SDS011;29032;56.028;92.904;2023-07-31T19:53:34;6.18;;;5.65;;
42886;SDS011;29032;56.028;92.904;2023-07-31T19:58:36;6.82;;;5.95;;
42886;SDS011;29032;56.028;92.904;2023-07-31T20:03:38;6.00;;;5.40;;
42886;SDS011;29032;56.028;92.904;2023-07-31T20:08:42;6.82;;;6.13;;
42886;SDS011;29032;56.028;92.904;2023-07-31T20:13:44;7.55;;;6.20;;
42886;SDS011;29032;56.028;92.904;2023-07-31T20:18:46;6.95;;;6.00;;
42886;SDS011;29032;56.028;92.904;2023-07-31T20:23:49;10.15;;;6.30;;
42886;SDS011;29032;56.028;92.904;2023-07-31T20:28:51;10.13;;;6.22;;
42886;SDS011;29032;56.028;92.904;2023-07-31T20:33:53;7.75;;;6.40;;
42886;SDS011;29032;56.028;92.904;2023-07-31T20:38:57;6.82;;;6.10;;
42886;SDS011;29032;56.028;92.904;2023-07-31T20:43:59;6.38;;;5.78;;
42886;SDS011;29032;56.028;92.904;2023-07-31T20:49:01;12.82;;;6.40;;
42886;SDS011;29032;56.028;92.904;2023-07-31T20:54:04;6.53;;;5.80;;
42886;SDS011;29032;56.028;92.904;2023-07-31T20:59:06;7.25;;;6.07;;
42886;SDS011;29032;56.028;92.904;2023-07-31T21:04:08;6.25;;;5.65;;
42886;SDS011;29032;56.028;92.904;2023-07-31T21:09:12;6.88;;;6.03;;
42886;SDS011;29032;56.028;92.904;2023-07-31T21:14:14;8.88;;;6.10;;
42886;SDS011;29032;56.028;92.904;2023-07-31T21:19:16;6.75;;;6.10;;
42886;SDS011;29032;56.028;92.904;2023-07-31T21:24:20;6.45;;;5.82;;
42886;SDS011;29032;56.028;92.904;2023-07-31T21:29:21;7.43;;;6.22;;
42886;SDS011;29032;56.028;92.904;2023-07-31T21:34:24;7.07;;;6.38;;
42886;SDS011;29032;56.028;92.904;2023-07-31T21:39:30;6.75;;;5.70;;
42886;SDS011;29032;56.028;92.904;2023-07-31T21:44:32;6.47;;;5.80;;
42886;SDS011;29032;56.028;92.904;2023-07-31T21:49:34;6.88;;;6.20;;
42886;SDS011;29032;56.028;92.904;2023-07-31T21:54:37;6.68;;;6.03;;
42886;SDS011;29032;56.028;92.904;2023-07-31T21:59:39;8.23;;;6.03;;
42886;SDS011;29032;56.028;92.904;2023-07-31T22:04:41;7.05;;;6.35;;
42886;SDS011;29032;56.028;92.904;2023-07-31T22:09:45;7.05;;;6.35;;
42886;SDS011;29032;56.028;92.904;2023-07-31T22:14:47;6.28;;;5.68;;
42886;SDS011;29032;56.028;92.904;2023-07-31T22:19:49;8.25;;;6.53;;
42886;SDS011;29032;56.028;92.904;2023-07-31T22:24:52;7.05;;;6.25;;
42886;SDS011;29032;56.028;92.904;2023-07-31T22:29:54;6.95;;;6.30;;
42886;SDS011;29032;56.028;92.904;2023-07-31T22:34:56;8.15;;;6.40;;
42886;SDS011;29032;56.028;92.904;2023-07-31T22:39:59;7.55;;;6.35;;
42886;SDS011;29032;56.028;92.904;2023-07-31T22:45:02;6.40;;;5.80;;
42886;SDS011;29032;56.028;92.904;2023-07-31T22:50:04;6.15;;;5.55;;
42886;SDS011;29032;56.028;92.904;2023-07-31T22:55:09;8.02;;;6.18;;
42886;SDS011;29032;56.028;92.904;2023-07-31T23:00:12;6.82;;;6.22;;
42886;SDS011;29032;56.028;92.904;2023-07-31T23:05:15;6.53;;;5.82;;
42886;SDS011;29032;56.028;92.904;2023-07-31T23:10:18;8.07;;;6.38;;
42886;SDS011;29032;56.028;92.904;2023-07-31T23:15:20;8.10;;;6.65;;
42886;SDS011;29032;56.028;92.904;2023-07-31T23:20:22;8.23;;;6.15;;
42886;SDS011;29032;56.028;92.904;2023-07-31T23:25:26;7.93;;;6.15;;
42886;SDS011;29032;56.028;92.904;2023-07-31T23:30:28;7.03;;;6.32;;
42886;SDS011;29032;56.028;92.904;2023-07-31T23:35:30;7.55;;;6.65;;
42886;SDS011;29032;56.028;92.904;2023-07-31T23:40:33;12.10;;;7.60;;
42886;SDS011;29032;56.028;92.904;2023-07-31T23:45:35;8.15;;;7.20;;
42886;SDS011;29032;56.028;92.904;2023-07-31T23:50:37;7.82;;;7.03;;
42886;SDS011;29032;56.028;92.904;2023-07-31T23:55:41;7.35;;;6.50;;
